sensor_id;sensor_type;location;lat;lon;timestamp;P1;durP1;ratioP1;P2;durP2;ratioP2
12072;SDS011;6098;49.004;8.372;2024-01-30T00:06:19;11.79;;;6.79;;
12072;SDS011;6098;49.004;8.372;2024-01-30T00:21:09;11.20;;;6.73;;
12072;SDS011;6098;49.004;8.372;2024-01-30T00:36:01;9.10;;;5.98;;
12072;SDS011;6098;49.004;8.372;2024-01-30T00:50:54;8.90;;;5.70;;
12072;SDS011;6098;49.004;8.372;2024-01-30T01:05:44;11.10;;;5.83;;
12072;SDS011;6098;49.004;8.372;2024-01-30T01:20:36;9.04;;;5.56;;
12072;SDS011;6098;49.004;8.372;2024-01-30T01:35:27;8.46;;;4.93;;
12072;SDS011;6098;49.004;8.372;2024-01-30T01:50:18;8.44;;;5.48;;
12072;SDS011;6098;49.004;8.372;2024-01-30T02:05:09;8.09;;;4.96;;
12072;SDS011;6098;49.004;8.372;2024-01-30T02:20:00;8.72;;;5.26;;
12072;SDS011;6098;49.004;8.372;2024-01-30T02:34:50;11.89;;;5.30;;
12072;SDS011;6098;49.004;8.372;2024-01-30T02:49:40;8.07;;;5.81;;
12072;SDS011;6098;49.004;8.372;2024-01-30T03:04:31;10.19;;;5.69;;
12072;SDS011;6098;49.004;8.372;2024-01-30T03:19:22;7.82;;;5.14;;
12072;SDS011;6098;49.004;8.372;2024-01-30T03:34:14;11.97;;;5.91;;
12072;SDS011;6098;49.004;8.372;2024-01-30T03:49:05;9.07;;;5.68;;
12072;SDS011;6098;49.004;8.372;2024-01-30T04:03:55;7.40;;;4.47;;
12072;SDS011;6098;49.004;8.372;2024-01-30T04:18:47;7.68;;;5.06;;
12072;SDS011;6098;49.004;8.372;2024-01-30T04:33:39;6.69;;;4.38;;
12072;SDS011;6098;49.004;8.372;2024-01-30T04:48:30;5.19;;;3.94;;
12072;SDS011;6098;49.004;8.372;2024-01-30T05:03:20;8.81;;;5.23;;
12072;SDS011;6098;49.004;8.372;2024-01-30T05:18:11;11.16;;;4.73;;
12072;SDS011;6098;49.004;8.372;2024-01-30T05:33:03;4.72;;;3.79;;
12072;SDS011;6098;49.004;8.372;2024-01-30T05:47:54;6.69;;;4.28;;
12072;SDS011;6098;49.004;8.372;2024-01-30T06:02:44;7.82;;;5.21;;
12072;SDS011;6098;49.004;8.372;2024-01-30T06:17:37;7.17;;;4.07;;
12072;SDS011;6098;49.004;8.372;2024-01-30T06:32:27;7.26;;;3.83;;
12072;SDS011;6098;49.004;8.372;2024-01-30T06:47:18;7.42;;;4.63;;
12072;SDS011;6098;49.004;8.372;2024-01-30T07:02:10;8.71;;;4.77;;
12072;SDS011;6098;49.004;8.372;2024-01-30T07:17:02;9.61;;;4.69;;
12072;SDS011;6098;49.004;8.372;2024-01-30T07:31:53;7.99;;;4.50;;
12072;SDS011;6098;49.004;8.372;2024-01-30T07:46:44;10.00;;;5.92;;
12072;SDS011;6098;49.004;8.372;2024-01-30T08:01:34;11.37;;;6.47;;
12072;SDS011;6098;49.004;8.372;2024-01-30T08:16:25;10.53;;;6.04;;
12072;SDS011;6098;49.004;8.372;2024-01-30T08:31:18;10.31;;;5.99;;
12072;SDS011;6098;49.004;8.372;2024-01-30T08:46:10;12.08;;;8.00;;
12072;SDS011;6098;49.004;8.372;2024-01-30T09:01:02;13.66;;;7.63;;
12072;SDS011;6098;49.004;8.372;2024-01-30T09:15:54;11.67;;;7.03;;
12072;SDS011;6098;49.004;8.372;2024-01-30T09:30:46;10.76;;;6.83;;
12072;SDS011;6098;49.004;8.372;2024-01-30T09:45:38;11.24;;;6.13;;
12072;SDS011;6098;49.004;8.372;2024-01-30T10:00:29;13.22;;;7.86;;
12072;SDS011;6098;49.004;8.372;2024-01-30T10:15:21;12.47;;;8.01;;
12072;SDS011;6098;49.004;8.372;2024-01-30T10:30:13;19.28;;;10.27;;
12072;SDS011;6098;49.004;8.372;2024-01-30T10:45:06;15.32;;;10.01;;
12072;SDS011;6098;49.004;8.372;2024-01-30T10:59:57;15.31;;;9.96;;
12072;SDS011;6098;49.004;8.372;2024-01-30T11:14:48;18.99;;;10.83;;
12072;SDS011;6098;49.004;8.372;2024-01-30T11:29:40;16.34;;;10.14;;
12072;SDS011;6098;49.004;8.372;2024-01-30T11:44:46;16.46;;;10.26;;
12072;SDS011;6098;49.004;8.372;2024-01-30T11:59:35;15.22;;;9.51;;
12072;SDS011;6098;49.004;8.372;2024-01-30T12:14:27;13.96;;;9.41;;
12072;SDS011;6098;49.004;8.372;2024-01-30T12:29:20;13.43;;;8.87;;
12072;SDS011;6098;49.004;8.372;2024-01-30T12:44:13;13.31;;;9.07;;
12072;SDS011;6098;49.004;8.372;2024-01-30T12:59:05;11.92;;;8.73;;
12072;SDS011;6098;49.004;8.372;2024-01-30T13:13:56;11.72;;;8.48;;
12072;SDS011;6098;49.004;8.372;2024-01-30T13:28:48;12.20;;;8.34;;
12072;SDS011;6098;49.004;8.372;2024-01-30T13:43:40;11.99;;;7.50;;
12072;SDS011;6098;49.004;8.372;2024-01-30T13:58:31;9.97;;;7.42;;
12072;SDS011;6098;49.004;8.372;2024-01-30T14:13:22;9.39;;;6.29;;
12072;SDS011;6098;49.004;8.372;2024-01-30T14:28:16;8.39;;;6.46;;
12072;SDS011;6098;49.004;8.372;2024-01-30T14:43:07;10.79;;;7.28;;
12072;SDS011;6098;49.004;8.372;2024-01-30T14:57:59;9.12;;;6.89;;
12072;SDS011;6098;49.004;8.372;2024-01-30T15:12:50;12.69;;;7.47;;
12072;SDS011;6098;49.004;8.372;2024-01-30T15:27:43;11.40;;;6.83;;
12072;SDS011;6098;49.004;8.372;2024-01-30T15:42:35;13.88;;;7.47;;
12072;SDS011;6098;49.004;8.372;2024-01-30T15:57:26;12.88;;;8.52;;
12072;SDS011;6098;49.004;8.372;2024-01-30T16:12:18;11.01;;;7.34;;
12072;SDS011;6098;49.004;8.372;2024-01-30T16:27:09;13.68;;;8.16;;
12072;SDS011;6098;49.004;8.372;2024-01-30T16:42:00;10.17;;;6.92;;
12072;SDS011;6098;49.004;8.372;2024-01-30T16:56:52;15.98;;;9.10;;
12072;SDS011;6098;49.004;8.372;2024-01-30T17:11:43;16.83;;;10.27;;
12072;SDS011;6098;49.004;8.372;2024-01-30T17:26:36;12.41;;;8.62;;
12072;SDS011;6098;49.004;8.372;2024-01-30T17:41:27;15.39;;;8.54;;
12072;SDS011;6098;49.004;8.372;2024-01-30T17:56:19;19.59;;;10.17;;
12072;SDS011;6098;49.004;8.372;2024-01-30T18:11:10;19.21;;;11.16;;
12072;SDS011;6098;49.004;8.372;2024-01-30T18:26:01;21.38;;;11.53;;
12072;SDS011;6098;49.004;8.372;2024-01-30T18:40:53;17.86;;;11.99;;
12072;SDS011;6098;49.004;8.372;2024-01-30T18:55:46;16.31;;;10.44;;
12072;SDS011;6098;49.004;8.372;2024-01-30T19:10:39;19.09;;;12.01;;
12072;SDS011;6098;49.004;8.372;2024-01-30T19:25:34;18.98;;;11.58;;
12072;SDS011;6098;49.004;8.372;2024-01-30T19:40:25;21.28;;;12.26;;
12072;SDS011;6098;49.004;8.372;2024-01-30T19:55:17;22.56;;;13.12;;
12072;SDS011;6098;49.004;8.372;2024-01-30T20:10:07;19.17;;;11.64;;
12072;SDS011;6098;49.004;8.372;2024-01-30T20:24:57;20.74;;;12.69;;
12072;SDS011;6098;49.004;8.372;2024-01-30T20:39:48;18.38;;;11.94;;
12072;SDS011;6098;49.004;8.372;2024-01-30T20:54:39;21.30;;;12.81;;
12072;SDS011;6098;49.004;8.372;2024-01-30T21:09:32;24.04;;;14.08;;
12072;SDS011;6098;49.004;8.372;2024-01-30T21:24:24;23.58;;;13.06;;
12072;SDS011;6098;49.004;8.372;2024-01-30T21:39:16;18.39;;;11.53;;
12072;SDS011;6098;49.004;8.372;2024-01-30T21:54:09;19.34;;;12.29;;
12072;SDS011;6098;49.004;8.372;2024-01-30T22:09:01;19.08;;;11.84;;
12072;SDS011;6098;49.004;8.372;2024-01-30T22:23:55;19.67;;;12.13;;
12072;SDS011;6098;49.004;8.372;2024-01-30T22:38:47;17.81;;;11.49;;
12072;SDS011;6098;49.004;8.372;2024-01-30T22:53:37;15.58;;;10.19;;
12072;SDS011;6098;49.004;8.372;2024-01-30T23:08:30;14.42;;;9.41;;
12072;SDS011;6098;49.004;8.372;2024-01-30T23:23:23;15.46;;;9.12;;
12072;SDS011;6098;49.004;8.372;2024-01-30T23:38:14;14.47;;;9.21;;
12072;SDS011;6098;49.004;8.372;2024-01-30T23:53:04;15.18;;;8.59;;
